createdAt,value
2023-02-27T00:00:52.503Z,1.40
2023-02-27T00:03:19.241Z,1.50
2023-02-27T00:05:45.999Z,1.50
2023-02-27T00:08:13.146Z,1.50
2023-02-27T00:10:39.836Z,1.40
2023-02-27T00:13:06.567Z,1.50
2023-02-27T00:15:33.606Z,1.50
2023-02-27T00:18:00.334Z,1.40
2023-02-27T00:20:27.213Z,1.50
2023-02-27T00:22:53.993Z,1.50
2023-02-27T00:25:20.732Z,1.50
2023-02-27T00:27:47.447Z,1.40
2023-02-27T00:30:15.694Z,1.50
2023-02-27T00:32:42.413Z,1.50
2023-02-27T00:35:11.521Z,1.50
2023-02-27T00:37:38.785Z,1.40
2023-02-27T00:40:06.544Z,1.40
2023-02-27T00:42:33.429Z,1.40
2023-02-27T00:45:00.148Z,1.40
2023-02-27T00:47:26.792Z,1.40
2023-02-27T00:49:53.484Z,1.40
2023-02-27T00:52:20.170Z,1.40
2023-02-27T00:54:46.828Z,1.40
2023-02-27T00:57:13.486Z,1.40
2023-02-27T00:59:40.153Z,1.40
2023-02-27T01:02:06.942Z,1.40
2023-02-27T01:04:33.605Z,1.30
2023-02-27T01:07:00.270Z,1.30
2023-02-27T01:09:27.071Z,1.30
2023-02-27T01:11:53.817Z,1.30
2023-02-27T01:14:20.431Z,1.40
2023-02-27T01:16:47.105Z,1.30
2023-02-27T01:19:13.770Z,1.30
2023-02-27T01:21:42.024Z,1.40
2023-02-27T01:24:10.066Z,1.40
2023-02-27T01:26:36.914Z,1.40
2023-02-27T01:29:06.225Z,1.40
2023-02-27T01:31:33.418Z,1.30
2023-02-27T01:34:00.346Z,1.40
2023-02-27T01:36:27.100Z,1.40
2023-02-27T01:38:53.823Z,1.40
2023-02-27T01:41:21.171Z,1.40
2023-02-27T01:43:58.260Z,1.40
2023-02-27T01:46:25.731Z,1.40
2023-02-27T01:48:59.504Z,1.30
2023-02-27T01:51:31.699Z,1.30
2023-02-27T01:53:58.994Z,1.20
2023-02-27T01:56:28.809Z,1.30
2023-02-27T01:58:59.087Z,1.20
2023-02-27T02:01:26.995Z,1.20
2023-02-27T02:04:36.258Z,1.20
2023-02-27T02:07:07.235Z,1.10
2023-02-27T02:09:38.964Z,1.20
2023-02-27T02:12:06.280Z,1.20
2023-02-27T02:14:32.940Z,1.10
2023-02-27T02:17:23.429Z,1.20
2023-02-27T02:20:17.960Z,1.20
2023-02-27T02:23:15.667Z,1.20
2023-02-27T02:26:20.589Z,1.20
2023-02-27T02:29:22.530Z,1.20
2023-02-27T02:32:14.438Z,1.10
2023-02-27T02:35:00.183Z,1.10
2023-02-27T02:37:49.366Z,1.20
2023-02-27T02:40:43.870Z,1.10
2023-02-27T02:43:19.021Z,1.20
2023-02-27T02:45:53.440Z,1.10
2023-02-27T02:48:38.825Z,1.10
2023-02-27T02:51:19.504Z,1.10
2023-02-27T02:53:46.078Z,1.10
2023-02-27T02:56:18.762Z,1.10
2023-02-27T02:58:59.624Z,1.10
2023-02-27T03:01:52.938Z,1.10
2023-02-27T03:04:28.173Z,1.00
2023-02-27T03:07:22.518Z,1.00
2023-02-27T03:10:11.872Z,1.00
2023-02-27T03:12:42.077Z,1.00
2023-02-27T03:15:11.366Z,1.00
2023-02-27T03:17:46.725Z,1.00
2023-02-27T03:20:25.016Z,1.00
2023-02-27T03:22:56.856Z,0.90
2023-02-27T03:25:27.049Z,0.90
2023-02-27T03:28:04.139Z,0.80
2023-02-27T03:30:41.451Z,0.80
2023-02-27T03:33:24.234Z,0.80
2023-02-27T03:36:09.524Z,0.70
2023-02-27T03:38:38.345Z,0.70
2023-02-27T03:41:22.183Z,0.70
2023-02-27T03:44:09.057Z,0.70
2023-02-27T03:46:36.841Z,0.70
2023-02-27T03:49:04.552Z,0.70
2023-02-27T03:51:31.669Z,0.70
2023-02-27T03:54:09.666Z,0.60
2023-02-27T03:56:44.997Z,0.60
2023-02-27T03:59:11.705Z,0.50
2023-02-27T04:01:38.535Z,0.50
2023-02-27T04:04:11.166Z,0.50
2023-02-27T04:06:58.632Z,0.50
2023-02-27T04:10:00.244Z,0.50
2023-02-27T04:12:50.825Z,0.40
2023-02-27T04:15:54.301Z,0.50
2023-02-27T04:18:37.153Z,0.40
2023-02-27T04:21:11.299Z,0.40
2023-02-27T04:23:45.248Z,0.40
2023-02-27T04:26:31.829Z,0.40
2023-02-27T04:29:07.255Z,0.40
2023-02-27T04:31:59.197Z,0.50
2023-02-27T04:34:41.308Z,0.40
2023-02-27T04:37:36.683Z,0.40
2023-02-27T04:40:09.359Z,0.50
2023-02-27T04:42:42.047Z,0.50
2023-02-27T04:45:14.268Z,0.50
2023-02-27T04:47:52.105Z,0.50
2023-02-27T04:50:27.831Z,0.50
2023-02-27T04:53:11.759Z,0.40
2023-02-27T04:55:46.165Z,0.40
2023-02-27T04:58:18.264Z,0.50
2023-02-27T05:00:49.339Z,0.40
2023-02-27T05:03:30.545Z,0.40
2023-02-27T05:06:00.548Z,0.50
2023-02-27T05:08:36.988Z,0.40
2023-02-27T05:11:11.335Z,0.40
2023-02-27T05:14:03.567Z,0.40
2023-02-27T05:16:39.361Z,0.40
2023-02-27T05:19:07.473Z,0.40
2023-02-27T05:21:39.495Z,0.40
2023-02-27T05:24:27.921Z,0.50
2023-02-27T05:27:20.076Z,0.50
2023-02-27T05:29:59.553Z,0.50
2023-02-27T05:32:55.338Z,0.50
2023-02-27T05:35:29.076Z,0.50
2023-02-27T05:38:08.735Z,0.50
2023-02-27T05:40:41.551Z,0.50
2023-02-27T05:43:16.890Z,0.30
2023-02-27T05:45:47.034Z,0.30
2023-02-27T05:48:23.247Z,0.40
2023-02-27T05:50:52.463Z,0.30
2023-02-27T05:53:21.765Z,0.20
2023-02-27T05:55:54.424Z,0.30
2023-02-27T05:58:27.090Z,0.30
2023-02-27T06:01:03.452Z,0.30
2023-02-27T06:03:33.482Z,0.10
2023-02-27T06:06:01.017Z,0.00
2023-02-27T06:08:28.044Z,-0.10
2023-02-27T06:10:57.581Z,0.00
2023-02-27T06:13:25.961Z,0.00
2023-02-27T06:15:53.528Z,0.00
2023-02-27T06:18:20.576Z,0.00
2023-02-27T06:20:47.401Z,-0.20
2023-02-27T06:23:14.335Z,-0.20
2023-02-27T06:25:42.275Z,-0.20
2023-02-27T06:28:09.962Z,-0.10
2023-02-27T06:30:37.211Z,-0.10
2023-02-27T06:33:04.364Z,-0.10
2023-02-27T06:35:31.200Z,-0.10
2023-02-27T06:37:57.997Z,-0.20
2023-02-27T06:40:25.037Z,-0.20
2023-02-27T06:42:51.797Z,-0.20
2023-02-27T06:45:18.778Z,-0.20
2023-02-27T06:47:45.665Z,-0.20
2023-02-27T06:50:13.901Z,-0.20
2023-02-27T06:52:41.038Z,-0.20
2023-02-27T06:55:08.837Z,-0.20
2023-02-27T06:57:36.182Z,-0.30
2023-02-27T07:00:04.647Z,-0.20
2023-02-27T07:02:31.584Z,-0.20
2023-02-27T07:04:58.276Z,-0.30
2023-02-27T07:07:34.017Z,-0.30
2023-02-27T07:10:05.511Z,-0.30
2023-02-27T07:12:32.221Z,-0.30
2023-02-27T07:14:59.041Z,-0.20
2023-02-27T07:17:26.027Z,-0.30
2023-02-27T07:19:52.697Z,-0.30
2023-02-27T07:22:19.337Z,-0.20
2023-02-27T07:24:46.031Z,-0.20
2023-02-27T07:27:12.651Z,-0.20
2023-02-27T07:29:39.301Z,-0.20
2023-02-27T07:32:06.181Z,-0.20
2023-02-27T07:34:33.055Z,-0.20
2023-02-27T07:36:59.698Z,-0.20
2023-02-27T07:39:26.338Z,-0.20
2023-02-27T07:41:53.002Z,-0.20
2023-02-27T07:44:19.782Z,-0.10
2023-02-27T07:46:47.348Z,-0.20
2023-02-27T07:49:14.288Z,-0.20
2023-02-27T07:51:40.979Z,-0.10
2023-02-27T07:54:07.884Z,-0.10
2023-02-27T07:56:34.786Z,-0.10
2023-02-27T07:59:01.907Z,-0.10
2023-02-27T08:01:28.679Z,0.00
2023-02-27T08:03:56.550Z,0.00
2023-02-27T08:06:24.123Z,0.00
2023-02-27T08:08:51.893Z,0.00
2023-02-27T08:11:19.086Z,0.10
2023-02-27T08:14:02.823Z,0.10
2023-02-27T08:16:31.222Z,0.10
2023-02-27T08:18:58.597Z,0.10
2023-02-27T08:21:26.212Z,0.20
2023-02-27T08:23:53.074Z,0.20
2023-02-27T08:26:19.732Z,0.20
2023-02-27T08:28:46.365Z,0.30
2023-02-27T08:31:13.499Z,0.30
2023-02-27T08:33:40.220Z,0.40
2023-02-27T08:36:08.109Z,0.40
2023-02-27T08:38:34.882Z,0.50
2023-02-27T08:41:13.686Z,0.50
2023-02-27T08:43:40.331Z,0.60
2023-02-27T08:46:07.025Z,0.70
2023-02-27T08:48:33.754Z,0.70
2023-02-27T08:51:00.443Z,0.80
2023-02-27T08:53:28.200Z,0.90
2023-02-27T08:55:54.973Z,0.90
2023-02-27T08:58:21.879Z,1.00
2023-02-27T09:00:48.579Z,1.00
2023-02-27T09:03:15.397Z,1.10
2023-02-27T09:05:42.731Z,1.10
2023-02-27T09:08:09.740Z,1.20
2023-02-27T09:10:36.652Z,1.30
2023-02-27T09:13:03.393Z,1.30
2023-02-27T09:15:31.766Z,1.40
2023-02-27T09:18:03.085Z,1.40
2023-02-27T09:20:31.702Z,1.40
2023-02-27T09:22:59.235Z,1.50
2023-02-27T09:25:27.290Z,1.50
2023-02-27T09:27:54.159Z,1.50
2023-02-27T09:30:21.142Z,1.50
2023-02-27T09:32:47.880Z,1.60
2023-02-27T09:35:17.699Z,1.60
2023-02-27T09:37:44.503Z,1.70
2023-02-27T09:40:20.251Z,1.70
2023-02-27T09:42:48.578Z,1.70
2023-02-27T09:45:25.277Z,1.80
2023-02-27T09:48:00.607Z,1.80
2023-02-27T09:50:33.366Z,1.80
2023-02-27T09:53:00.711Z,1.90
2023-02-27T09:55:31.927Z,1.90
2023-02-27T09:58:07.883Z,2.00
2023-02-27T10:00:47.017Z,2.00
2023-02-27T10:03:45.247Z,2.00
2023-02-27T10:06:24.843Z,2.10
2023-02-27T10:09:03.502Z,2.20
2023-02-27T10:11:57.300Z,2.30
2023-02-27T10:14:34.330Z,2.30
2023-02-27T10:17:04.309Z,2.40
2023-02-27T10:19:37.157Z,2.40
2023-02-27T10:22:07.934Z,2.50
2023-02-27T10:24:40.067Z,2.60
2023-02-27T10:27:15.235Z,2.70
2023-02-27T10:29:42.255Z,2.80
2023-02-27T10:32:24.440Z,2.80
2023-02-27T10:35:24.581Z,2.90
2023-02-27T10:37:55.855Z,2.90
2023-02-27T10:40:24.960Z,3.00
2023-02-27T10:42:53.005Z,3.00
2023-02-27T10:45:19.880Z,3.00
2023-02-27T10:47:46.563Z,3.10
2023-02-27T10:50:33.465Z,3.20
2023-02-27T10:53:02.551Z,3.30
2023-02-27T10:55:30.492Z,3.40
2023-02-27T10:57:59.562Z,3.40
2023-02-27T11:00:40.294Z,3.40
2023-02-27T11:03:16.983Z,3.50
2023-02-27T11:05:52.129Z,3.50
2023-02-27T11:08:25.432Z,3.60
2023-02-27T11:10:57.992Z,3.60
2023-02-27T11:13:25.984Z,3.60
2023-02-27T11:16:07.773Z,3.60
2023-02-27T11:18:36.343Z,3.60
2023-02-27T11:21:14.160Z,3.70
2023-02-27T11:24:03.120Z,3.60
2023-02-27T11:26:34.541Z,3.60
2023-02-27T11:29:17.879Z,3.60
2023-02-27T11:32:02.128Z,3.70
2023-02-27T11:34:36.613Z,3.70
2023-02-27T11:37:24.109Z,3.70
2023-02-27T11:40:13.277Z,3.70
2023-02-27T11:42:48.400Z,3.70
2023-02-27T11:46:04.508Z,3.80
2023-02-27T11:48:35.010Z,3.80
2023-02-27T11:51:10.927Z,3.70
2023-02-27T11:53:44.459Z,3.80
2023-02-27T11:56:16.542Z,3.80
2023-02-27T11:58:48.844Z,3.80
2023-02-27T12:01:21.748Z,3.90
2023-02-27T12:04:02.211Z,4.10
2023-02-27T12:06:36.082Z,4.20
2023-02-27T12:09:36.080Z,4.30
2023-02-27T12:12:09.998Z,4.30
2023-02-27T12:14:48.679Z,4.30
2023-02-27T12:17:45.639Z,4.40
2023-02-27T12:20:20.547Z,4.40
2023-02-27T12:22:51.899Z,4.40
2023-02-27T12:25:27.606Z,4.40
2023-02-27T12:28:03.487Z,4.40
2023-02-27T12:30:36.275Z,4.40
2023-02-27T12:33:17.711Z,4.30
2023-02-27T12:35:49.721Z,4.40
2023-02-27T12:38:17.258Z,4.40
2023-02-27T12:40:58.359Z,4.40
2023-02-27T12:44:02.496Z,4.40
2023-02-27T12:46:29.120Z,4.40
2023-02-27T12:49:21.984Z,4.30
2023-02-27T12:52:21.809Z,4.30
2023-02-27T12:54:54.301Z,4.30
2023-02-27T12:57:21.035Z,4.30
2023-02-27T13:00:14.897Z,4.20
2023-02-27T13:02:57.910Z,4.20
2023-02-27T13:05:48.124Z,4.10
2023-02-27T13:08:14.790Z,4.20
2023-02-27T13:10:45.749Z,4.20
2023-02-27T13:13:36.800Z,4.20
2023-02-27T13:16:10.897Z,4.20
2023-02-27T13:18:51.881Z,4.20
2023-02-27T13:21:41.794Z,4.20
2023-02-27T13:24:27.693Z,4.30
2023-02-27T13:27:16.561Z,4.20
2023-02-27T13:29:52.574Z,4.20
2023-02-27T13:32:55.652Z,4.20
2023-02-27T13:35:25.678Z,4.20
2023-02-27T13:37:54.438Z,4.20
2023-02-27T13:40:31.840Z,4.20
2023-02-27T13:43:06.430Z,4.20
2023-02-27T13:45:57.106Z,4.30
2023-02-27T13:48:38.348Z,4.30
2023-02-27T13:51:07.894Z,4.20
2023-02-27T13:53:34.549Z,4.30
2023-02-27T13:56:21.594Z,4.30
2023-02-27T13:58:48.764Z,4.30
2023-02-27T14:01:27.322Z,4.20
2023-02-27T14:04:03.780Z,4.10
2023-02-27T14:06:30.800Z,4.10
2023-02-27T14:09:12.834Z,4.00
2023-02-27T14:12:12.851Z,4.00
2023-02-27T14:14:50.290Z,4.00
2023-02-27T14:17:37.101Z,4.10
2023-02-27T14:20:17.415Z,4.00
2023-02-27T14:23:02.564Z,4.00
2023-02-27T14:25:43.722Z,3.90
2023-02-27T14:28:42.579Z,3.90
2023-02-27T14:31:32.424Z,3.90
2023-02-27T14:34:06.236Z,3.90
2023-02-27T14:36:46.575Z,3.90
2023-02-27T14:39:27.694Z,3.90
2023-02-27T14:42:27.350Z,3.90
2023-02-27T14:44:54.851Z,3.90
2023-02-27T14:47:31.888Z,3.90
2023-02-27T14:49:59.386Z,3.90
2023-02-27T14:52:29.643Z,3.90
2023-02-27T14:55:12.249Z,3.80
2023-02-27T14:57:40.022Z,3.90
2023-02-27T15:00:07.530Z,3.90
2023-02-27T15:02:37.196Z,3.90
2023-02-27T15:05:03.815Z,3.90
2023-02-27T15:07:33.191Z,3.90
2023-02-27T15:10:04.679Z,3.90
2023-02-27T15:12:36.942Z,4.00
2023-02-27T15:15:05.872Z,4.10
2023-02-27T15:17:46.082Z,4.10
2023-02-27T15:20:32.523Z,4.10
2023-02-27T15:23:23.452Z,4.10
2023-02-27T15:25:54.181Z,4.10
2023-02-27T15:28:24.275Z,4.00
2023-02-27T15:30:53.191Z,4.10
2023-02-27T15:33:26.632Z,4.10
2023-02-27T15:35:53.375Z,3.90
2023-02-27T15:38:31.421Z,3.90
2023-02-27T15:40:59.473Z,3.80
2023-02-27T15:43:27.874Z,3.80
2023-02-27T15:45:55.571Z,3.80
2023-02-27T15:48:22.420Z,3.80
2023-02-27T15:50:54.033Z,3.80
2023-02-27T15:53:23.903Z,3.80
2023-02-27T15:55:59.272Z,3.70
2023-02-27T15:58:29.342Z,3.70
2023-02-27T16:01:04.943Z,3.70
2023-02-27T16:03:39.618Z,3.70
2023-02-27T16:06:12.461Z,3.70
2023-02-27T16:08:44.690Z,3.70
2023-02-27T16:11:22.544Z,3.70
2023-02-27T16:13:49.671Z,3.60
2023-02-27T16:16:37.484Z,3.60
2023-02-27T16:19:27.858Z,3.60
2023-02-27T16:22:03.330Z,3.70
2023-02-27T16:24:31.808Z,3.70
2023-02-27T16:26:58.726Z,3.70
2023-02-27T16:29:39.832Z,3.70
2023-02-27T16:32:06.732Z,3.60
2023-02-27T16:34:45.452Z,3.60
2023-02-27T16:37:40.340Z,3.50
2023-02-27T16:40:16.914Z,3.50
2023-02-27T16:42:44.721Z,3.50
2023-02-27T16:45:16.884Z,3.40
2023-02-27T16:47:43.972Z,3.40
2023-02-27T16:50:35.616Z,3.40
2023-02-27T16:53:02.331Z,3.40
2023-02-27T16:55:29.141Z,3.40
2023-02-27T16:57:55.997Z,3.30
2023-02-27T17:00:23.154Z,3.30
2023-02-27T17:02:50.147Z,3.30
2023-02-27T17:05:17.776Z,3.30
2023-02-27T17:07:44.969Z,3.30
2023-02-27T17:10:16.813Z,3.20
2023-02-27T17:12:44.135Z,3.20
2023-02-27T17:15:11.180Z,3.20
2023-02-27T17:17:37.919Z,3.20
2023-02-27T17:20:07.243Z,3.20
2023-02-27T17:22:39.549Z,3.20
2023-02-27T17:25:07.723Z,3.10
2023-02-27T17:27:35.067Z,3.10
2023-02-27T17:30:02.114Z,3.20
2023-02-27T17:32:29.059Z,3.20
2023-02-27T17:34:56.570Z,3.20
2023-02-27T17:37:23.578Z,3.20
2023-02-27T17:39:50.226Z,3.10
2023-02-27T17:42:18.631Z,3.20
2023-02-27T17:44:46.461Z,3.10
2023-02-27T17:47:14.381Z,3.10
2023-02-27T17:49:41.115Z,3.10
2023-02-27T17:52:07.986Z,3.10
2023-02-27T17:54:35.778Z,3.10
2023-02-27T17:57:04.728Z,3.10
2023-02-27T17:59:31.681Z,3.10
2023-02-27T18:01:58.850Z,3.10
2023-02-27T18:04:26.002Z,3.00
2023-02-27T18:06:52.899Z,3.00
2023-02-27T18:09:19.597Z,3.00
2023-02-27T18:11:46.281Z,3.10
2023-02-27T18:14:13.629Z,3.00
2023-02-27T18:16:40.685Z,3.00
2023-02-27T18:19:07.429Z,3.10
2023-02-27T18:21:34.689Z,3.00
2023-02-27T18:24:01.463Z,3.00
2023-02-27T18:26:31.326Z,3.00
2023-02-27T18:29:00.678Z,3.00
2023-02-27T18:31:31.121Z,3.00
2023-02-27T18:33:57.809Z,3.00
2023-02-27T18:36:24.810Z,3.00
2023-02-27T18:38:51.467Z,3.00
2023-02-27T18:41:18.130Z,3.00
2023-02-27T18:43:45.192Z,3.00
2023-02-27T18:46:13.415Z,3.00
2023-02-27T18:48:41.043Z,3.00
2023-02-27T18:51:12.310Z,2.90
2023-02-27T18:53:40.816Z,2.90
2023-02-27T18:56:09.573Z,2.90
2023-02-27T18:58:36.724Z,2.90
2023-02-27T19:01:04.798Z,2.90
2023-02-27T19:03:32.021Z,2.90
2023-02-27T19:05:58.905Z,2.80
2023-02-27T19:08:29.094Z,2.90
2023-02-27T19:10:56.395Z,2.90
2023-02-27T19:13:23.623Z,2.80
2023-02-27T19:15:50.414Z,2.80
2023-02-27T19:18:17.127Z,2.90
2023-02-27T19:20:43.802Z,2.90
2023-02-27T19:23:10.683Z,2.90
2023-02-27T19:25:37.356Z,2.90
2023-02-27T19:28:05.154Z,2.90
2023-02-27T19:30:31.857Z,2.90
2023-02-27T19:32:58.585Z,2.90
2023-02-27T19:35:25.547Z,2.80
2023-02-27T19:37:56.943Z,2.80
2023-02-27T19:40:24.326Z,2.80
2023-02-27T19:42:51.609Z,2.70
2023-02-27T19:45:18.698Z,2.70
2023-02-27T19:47:46.647Z,2.60
2023-02-27T19:50:13.778Z,2.50
2023-02-27T19:52:40.753Z,2.50
2023-02-27T19:55:07.993Z,2.50
2023-02-27T19:57:35.622Z,2.50
2023-02-27T20:00:05.660Z,2.40
2023-02-27T20:02:32.913Z,2.40
2023-02-27T20:04:59.634Z,2.30
2023-02-27T20:07:28.963Z,2.20
2023-02-27T20:09:56.316Z,2.30
2023-02-27T20:12:23.226Z,2.30
2023-02-27T20:14:50.210Z,2.30
2023-02-27T20:17:17.178Z,2.40
2023-02-27T20:19:43.818Z,2.40
2023-02-27T20:22:13.438Z,2.40
2023-02-27T20:24:40.082Z,2.40
2023-02-27T20:27:07.254Z,2.40
2023-02-27T20:29:33.942Z,2.40
2023-02-27T20:32:01.062Z,2.40
2023-02-27T20:34:28.511Z,2.40
2023-02-27T20:36:57.040Z,2.40
2023-02-27T20:39:24.203Z,2.40
2023-02-27T20:41:50.904Z,2.40
2023-02-27T20:44:17.667Z,2.40
2023-02-27T20:46:44.773Z,2.40
2023-02-27T20:49:14.925Z,2.40
2023-02-27T20:51:41.764Z,2.40
2023-02-27T20:54:13.542Z,2.40
2023-02-27T20:56:41.588Z,2.40
2023-02-27T20:59:12.331Z,2.40
2023-02-27T21:01:39.181Z,2.30
2023-02-27T21:04:06.453Z,2.30
2023-02-27T21:06:34.794Z,2.30
2023-02-27T21:09:05.237Z,2.30
2023-02-27T21:11:33.260Z,2.30
2023-02-27T21:14:04.166Z,2.30
2023-02-27T21:16:31.236Z,2.30
2023-02-27T21:18:58.101Z,2.20
2023-02-27T21:21:30.520Z,2.20
2023-02-27T21:23:57.792Z,2.20
2023-02-27T21:26:31.262Z,2.20
2023-02-27T21:29:02.128Z,2.10
2023-02-27T21:31:30.265Z,2.10
2023-02-27T21:33:58.863Z,2.10
2023-02-27T21:36:27.918Z,2.20
2023-02-27T21:38:59.811Z,2.20
2023-02-27T21:41:27.347Z,2.20
2023-02-27T21:43:59.141Z,2.20
2023-02-27T21:46:25.876Z,2.20
2023-02-27T21:48:52.617Z,2.20
2023-02-27T21:51:33.028Z,2.20
2023-02-27T21:54:03.841Z,2.20
2023-02-27T21:56:30.825Z,2.20
2023-02-27T21:59:01.625Z,2.20
2023-02-27T22:01:28.890Z,2.20
2023-02-27T22:03:56.142Z,2.20
2023-02-27T22:06:24.398Z,2.20
2023-02-27T22:08:58.814Z,2.20
2023-02-27T22:11:27.311Z,2.30
2023-02-27T22:13:54.109Z,2.30
2023-02-27T22:16:21.735Z,2.30
2023-02-27T22:18:49.097Z,2.30
2023-02-27T22:21:23.020Z,2.30
2023-02-27T22:23:50.351Z,2.20
2023-02-27T22:26:28.319Z,2.20
2023-02-27T22:28:59.130Z,2.20
2023-02-27T22:31:31.551Z,2.20
2023-02-27T22:34:12.134Z,2.30
2023-02-27T22:36:39.315Z,2.20
2023-02-27T22:39:06.452Z,2.20
2023-02-27T22:41:37.994Z,2.20
2023-02-27T22:44:05.163Z,2.10
2023-02-27T22:46:37.739Z,2.20
2023-02-27T22:49:08.323Z,2.20
2023-02-27T22:51:35.655Z,2.10
2023-02-27T22:54:04.295Z,2.10
2023-02-27T22:56:31.527Z,2.10
2023-02-27T22:58:58.527Z,2.10
2023-02-27T23:01:30.652Z,2.10
2023-02-27T23:03:59.762Z,2.10
2023-02-27T23:06:32.484Z,2.10
2023-02-27T23:09:00.154Z,2.10
2023-02-27T23:11:27.619Z,2.10
2023-02-27T23:13:54.488Z,2.00
2023-02-27T23:16:21.273Z,2.10
2023-02-27T23:18:51.195Z,2.00
2023-02-27T23:21:19.891Z,2.00
2023-02-27T23:23:47.733Z,2.00
2023-02-27T23:26:14.678Z,2.00
2023-02-27T23:28:42.066Z,2.00
2023-02-27T23:31:09.417Z,2.00
2023-02-27T23:33:36.131Z,2.00
2023-02-27T23:36:03.458Z,1.90
2023-02-27T23:38:30.410Z,1.90
2023-02-27T23:40:57.053Z,1.90
2023-02-27T23:43:24.127Z,1.90
2023-02-27T23:45:50.832Z,1.90
2023-02-27T23:48:17.559Z,2.00
2023-02-27T23:50:44.994Z,2.10
2023-02-27T23:53:13.590Z,2.10
2023-02-27T23:55:41.107Z,2.10
2023-02-27T23:58:10.301Z,2.10
